»·PEaware :: N726BZ KUDD-KBLH

N726BZ :: KUDD-KBLH

FLIGHT INFORMATION

Flight Status: Arrived
Operator: Privately registered:
United States
More flights under this callsign
Pilot: Mike E. (18363)
Aircraft: Unknown
(P28U)
More flights by this aircraft type
Origin: KUDD Bermuda Dunes
United States
Destination: KBLH Blythe
United States
More flights between these airports :: More routes between these airports
Route: TRM
File this flight plan on PilotEdge
Remarks:
Altitude:
(Current/Filed)
3,000ft
Speed:
(Current/Filed)
155kts
Departed: 03-Mar-18 08:28 AM
Arrived: 03-Mar-18 09:09 AM
Distance/Time
Traveled:
230nm/0:41
Distance/Time
To Go:
Arrived

Flight Plot

Page will automatically refresh every two minutes.

Flight plan parsing failed; only flown route is shown


Map Options




Map Legend


Flown Route
Filed Route
Departure Airport
Arrival Airport
Navaid (VOR, NDB)
Fix

Horizontal Profiles

Position Reports

Time Latitude Longitude Heading Altitude Ground
Speed
03-Mar-18 08:20 33.746641 -116.272865 89 59ft 0kts
03-Mar-18 08:21 33.746641 -116.272865 89 59ft 0kts
03-Mar-18 08:22 33.746641 -116.272865 89 59ft 0kts
03-Mar-18 08:23 33.746641 -116.272865 89 59ft 0kts
03-Mar-18 08:24 33.746641 -116.272865 89 59ft 0kts
03-Mar-18 08:25 33.746641 -116.272865 89 59ft 0kts
03-Mar-18 08:26 33.746641 -116.272865 88 59ft 0kts
03-Mar-18 08:27 33.746641 -116.272865 88 59ft 0kts
03-Mar-18 08:28 33.746641 -116.272865 88 59ft 0kts
03-Mar-18 08:29 33.746641 -116.272865 88 59ft 0kts
03-Mar-18 08:30 33.748130 -116.275384 296 62ft 18kts
03-Mar-18 08:31 33.750328 -116.280811 316 72ft 11kts
03-Mar-18 08:32 33.750458 -116.280857 12 73ft 0kts
03-Mar-18 08:33 33.750458 -116.280857 12 73ft 0kts
03-Mar-18 08:34 33.750697 -116.280385 115 72ft 14kts
03-Mar-18 08:35 33.741660 -116.255482 112 789ft 99kts
03-Mar-18 08:36 33.720102 -116.233437 145 2011ft 122kts
03-Mar-18 08:37 33.689429 -116.206053 144 2008ft 138kts
03-Mar-18 08:38 33.657923 -116.179840 148 2009ft 140kts
03-Mar-18 08:39 33.623167 -116.157497 151 2009ft 142kts
03-Mar-18 08:40 33.591091 -116.136215 151 2686ft 109kts
03-Mar-18 08:41 33.561688 -116.115662 139 2997ft 139kts
03-Mar-18 08:42 33.545013 -116.073096 103 2995ft 144kts
03-Mar-18 08:43 33.540056 -116.025763 89 2994ft 144kts
03-Mar-18 08:44 33.539307 -115.977834 89 2994ft 144kts
03-Mar-18 08:45 33.563123 -115.943144 37 2994ft 141kts
03-Mar-18 08:46 33.593736 -115.913678 37 2994ft 141kts
03-Mar-18 08:47 33.624349 -115.884136 37 2994ft 141kts
03-Mar-18 08:48 33.646913 -115.846198 62 2994ft 142kts
03-Mar-18 08:49 33.658096 -115.800607 73 2994ft 143kts
03-Mar-18 08:50 33.663741 -115.753199 80 2994ft 143kts
03-Mar-18 08:51 33.668954 -115.705763 80 2976ft 144kts
03-Mar-18 08:52 33.673778 -115.666585 76 3967ft 116kts
03-Mar-18 08:53 33.680290 -115.622364 77 3994ft 143kts
03-Mar-18 08:54 33.687368 -115.574893 77 3993ft 145kts
03-Mar-18 08:55 33.694448 -115.527195 77 3993ft 145kts
03-Mar-18 08:56 33.701529 -115.479237 77 3993ft 145kts
03-Mar-18 08:57 33.708536 -115.431499 77 3993ft 145kts
03-Mar-18 08:58 33.712072 -115.385043 87 3993ft 146kts
03-Mar-18 08:59 33.710864 -115.335502 98 3491ft 143kts
03-Mar-18 09:00 33.702039 -115.287848 103 3488ft 148kts
03-Mar-18 09:01 33.690517 -115.240036 109 3487ft 149kts
03-Mar-18 09:02 33.677648 -115.192581 104 3488ft 149kts
03-Mar-18 09:03 33.667081 -115.144601 102 3506ft 149kts
03-Mar-18 09:04 33.657411 -115.096271 101 3506ft 149kts
03-Mar-18 09:05 33.648035 -115.047667 101 3506ft 149kts
03-Mar-18 09:06 33.638818 -114.999245 101 3506ft 149kts
03-Mar-18 09:07 33.629612 -114.950697 101 3506ft 149kts
03-Mar-18 09:08 33.618797 -114.904331 110 2846ft 143kts
03-Mar-18 09:09 33.606379 -114.859157 101 1910ft 141kts
03-Mar-18 09:10 33.601190 -114.813523 92 1219ft 137kts
03-Mar-18 09:11 33.600409 -114.774849 90 1209ft 102kts
03-Mar-18 09:12 33.600759 -114.740627 87 1210ft 102kts
03-Mar-18 09:13 33.602315 -114.706693 85 1212ft 97kts
03-Mar-18 09:14 33.606398 -114.677702 12 1118ft 93kts
03-Mar-18 09:15 33.616381 -114.696059 270 644ft 76kts
03-Mar-18 09:16 33.615695 -114.715112 181 393ft 0kts
03-Mar-18 09:17 33.614923 -114.714723 109 393ft 8kts
03-Mar-18 09:18 33.614149 -114.713276 358 392ft 0kts
03-Mar-18 09:19 33.614149 -114.713276 358 392ft 0kts
03-Mar-18 09:20 33.614149 -114.713276 358 392ft 0kts
03-Mar-18 09:21 33.614149 -114.713276 358 392ft 0kts
03-Mar-18 09:22 33.614149 -114.713276 358 392ft 0kts
03-Mar-18 09:25 35.102465 -120.622783 34 16ft 0kts
03-Mar-18 09:26 35.102465 -120.622783 34 16ft 0kts

Navigation Log

Ident Type
Flight plan parsing failed, navigation log unavailable